Time;durP1;ratioP1;P1;durP2;ratioP2;P2;SDS_P1;SDS_P2;PMS_P1;PMS_P2;Temp;Humidity;BMP_temperature;BMP_pressure;BME280_temperature;BME280_humidity;BME280_pressure;Samples;Min_cycle;Max_cycle;Signal;HPM_P1;HPM_P2
2022/12/04 00:00:47;;;;;;;49.05;18.10;;;;;;;-0.26;100.00;102108.78;7381102;19;20014;-75
2022/12/04 00:03:19;;;;;;;57.33;18.58;;;;;;;-0.35;100.00;102105.50;7376739;19;20090;-75
2022/12/04 00:05:49;;;;;;;45.03;18.50;;;;;;;-0.34;100.00;102092.72;7375160;19;20010;-75
2022/12/04 00:08:19;;;;;;;41.60;16.67;;;;;;;-0.36;100.00;102096.88;7377822;19;20014;-78
2022/12/04 00:10:48;;;;;;;48.78;17.77;;;;;;;-0.35;100.00;102097.75;7378156;19;20021;-78
2022/12/04 00:13:18;;;;;;;30.73;12.38;;;;;;;-0.31;100.00;102097.22;7375577;19;20018;-78
2022/12/04 00:15:47;;;;;;;38.65;13.52;;;;;;;-0.34;100.00;102095.31;7376112;19;20018;-80
2022/12/04 00:18:20;;;;;;;39.15;15.73;;;;;;;-0.29;100.00;102098.22;7374077;19;20019;-80
2022/12/04 00:20:50;;;;;;;55.10;20.35;;;;;;;-0.36;100.00;102096.88;7371578;19;20011;-78
2022/12/04 00:23:19;;;;;;;50.47;17.38;;;;;;;-0.36;100.00;102089.13;7374538;19;20015;-77
2022/12/04 00:25:52;;;;;;;45.65;17.80;;;;;;;-0.40;100.00;102088.78;7378344;19;20011;-80
2022/12/04 00:28:21;;;;;;;50.45;19.38;;;;;;;-0.39;100.00;102086.31;7374219;19;20599;-78
2022/12/04 00:30:51;;;;;;;44.33;17.10;;;;;;;-0.32;100.00;102084.22;7380422;19;20021;-78
2022/12/04 00:33:24;;;;;;;44.60;17.38;;;;;;;-0.41;100.00;102087.88;7378901;19;20122;-78
2022/12/04 00:35:58;;;;;;;39.13;16.67;;;;;;;-0.36;100.00;102096.88;7377127;19;20651;-78
2022/12/04 00:38:29;;;;;;;49.28;18.40;;;;;;;-0.36;100.00;102095.97;7376318;19;20022;-78
2022/12/04 00:40:59;;;;;;;50.15;17.83;;;;;;;-0.36;100.00;102091.72;7374686;19;20018;-78
2022/12/04 00:43:30;;;;;;;52.53;18.80;;;;;;;-0.40;100.00;102084.53;7376026;19;20093;-77
2022/12/04 00:46:00;;;;;;;54.58;18.92;;;;;;;-0.36;100.00;102085.66;7377608;19;20017;-78
2022/12/04 00:48:32;;;;;;;50.92;18.67;;;;;;;-0.40;100.00;102088.78;7378254;19;20025;-78
2022/12/04 00:51:04;;;;;;;49.20;18.58;;;;;;;-0.40;100.00;102088.78;7373360;19;20032;-78
2022/12/04 00:53:35;;;;;;;50.85;19.52;;;;;;;-0.45;100.00;102088.41;7376430;19;20055;-78
2022/12/04 00:56:06;;;;;;;46.40;17.25;;;;;;;-0.44;100.00;102089.31;7380203;19;20018;-78
2022/12/04 00:58:35;;;;;;;50.88;15.98;;;;;;;-0.41;100.00;102084.41;7377905;19;20523;-78
2022/12/04 01:01:07;;;;;;;51.45;18.40;;;;;;;-0.43;100.00;102086.88;7374156;19;20022;-78
2022/12/04 01:03:40;;;;;;;54.90;19.35;;;;;;;-0.42;100.00;102085.19;7376538;19;20043;-78
2022/12/04 01:06:19;;;;;;;48.25;18.98;;;;;;;-0.44;100.00;102090.22;7376809;19;20094;-80
2022/12/04 01:08:49;;;;;;;48.60;17.95;;;;;;;-0.42;100.00;102087.75;7378120;19;20217;-79
2022/12/04 01:11:20;;;;;;;45.00;18.75;;;;;;;-0.43;100.00;102084.28;7375772;19;20015;-77
2022/12/04 01:13:50;;;;;;;43.22;17.75;;;;;;;-0.41;100.00;102093.03;7372882;19;20771;-78
2022/12/04 01:16:22;;;;;;;49.40;18.52;;;;;;;-0.47;100.00;102087.41;7375235;19;20006;-78
2022/12/04 01:18:55;;;;;;;49.28;19.30;;;;;;;-0.48;100.00;102084.72;7377204;19;20048;-80
2022/12/04 01:21:25;;;;;;;49.90;18.35;;;;;;;-0.49;100.00;102088.06;7374957;19;20014;-79
2022/12/04 01:23:54;;;;;;;49.53;18.80;;;;;;;-0.50;100.00;102097.47;7374251;19;20539;-79
2022/12/04 01:26:24;;;;;;;55.45;19.33;;;;;;;-0.54;100.00;102095.44;7373581;19;20553;-80
2022/12/04 01:28:54;;;;;;;47.85;17.38;;;;;;;-0.50;100.00;102086.28;7372708;19;20105;-79
2022/12/04 01:31:24;;;;;;;49.53;18.20;;;;;;;-0.42;100.00;102083.50;7376027;19;20014;-76
2022/12/04 01:33:57;;;;;;;49.83;18.77;;;;;;;-0.43;100.00;102080.81;7374583;19;20025;-75
2022/12/04 01:36:29;;;;;;;50.00;18.23;;;;;;;-0.51;100.00;102084.47;7375506;19;20007;-75
2022/12/04 01:38:59;;;;;;;44.58;17.25;;;;;;;-0.55;100.00;102083.34;7373550;19;20015;-75
2022/12/04 01:41:32;;;;;;;52.65;17.25;;;;;;;-0.52;100.00;102083.56;7374582;19;20015;-78
2022/12/04 01:44:12;;;;;;;38.70;14.98;;;;;;;-0.55;100.00;102078.19;7377514;19;20023;-75
2022/12/04 01:46:43;;;;;;;46.25;20.13;;;;;;;-0.55;100.00;102078.19;7374482;19;20018;-74
2022/12/04 01:49:20;;;;;;;44.35;17.55;;;;;;;-0.55;100.00;102072.13;7378983;19;20012;-75
2022/12/04 01:51:53;;;;;;;51.55;18.73;;;;;;;-0.57;100.00;102082.31;7373169;19;20018;-75
2022/12/04 01:54:28;;;;;;;48.65;16.25;;;;;;;-0.56;100.00;102084.13;7370428;19;20014;-77
2022/12/04 01:57:03;;;;;;;52.88;17.05;;;;;;;-0.54;100.00;102085.13;7375950;19;20237;-75
2022/12/04 01:59:37;;;;;;;59.08;21.58;;;;;;;-0.56;100.00;102089.28;7373442;19;20014;-77
2022/12/04 02:02:09;;;;;;;55.05;19.77;;;;;;;-0.58;100.00;102083.09;7370219;19;20018;-77
2022/12/04 02:04:44;;;;;;;54.22;19.98;;;;;;;-0.57;100.00;102090.06;7373612;19;20471;-75
2022/12/04 02:07:13;;;;;;;46.17;16.92;;;;;;;-0.56;100.00;102086.69;7374087;19;20155;-75
2022/12/04 02:09:44;;;;;;;55.28;20.67;;;;;;;-0.55;100.00;102088.50;7374625;19;20021;-75
2022/12/04 02:12:22;;;;;;;48.30;19.55;;;;;;;-0.53;100.00;102089.50;7374960;19;20031;-75
2022/12/04 02:15:01;;;;;;;56.72;18.98;;;;;;;-0.55;100.00;102082.44;7373524;19;20010;-75
2022/12/04 02:17:41;;;;;;;56.38;18.73;;;;;;;-0.52;100.00;102083.56;7374795;19;20029;-75
2022/12/04 02:20:30;;;;;;;49.55;20.10;;;;;;;-0.57;100.00;102082.31;7375067;19;20109;-75
2022/12/04 02:23:27;;;;;;;56.70;19.20;;;;;;;-0.53;100.00;102081.78;7374063;19;20010;-76
2022/12/04 02:26:04;;;;;;;51.53;19.35;;;;;;;-0.49;100.00;102085.50;7372281;19;20140;-75
2022/12/04 02:28:45;;;;;;;46.55;18.95;;;;;;;-0.51;100.00;102080.22;7375321;19;20106;-75
2022/12/04 02:31:21;;;;;;;49.13;20.33;;;;;;;-0.57;100.00;102079.75;7375897;19;20090;-75
2022/12/04 02:33:59;;;;;;;53.75;19.27;;;;;;;-0.55;100.00;102072.13;7375039;19;20018;-75
2022/12/04 02:36:32;;;;;;;45.83;17.23;;;;;;;-0.48;100.00;102079.56;7372507;19;20102;-75
2022/12/04 02:39:09;;;;;;;56.90;22.50;;;;;;;-0.51;100.00;102080.22;7372512;19;20020;-76
2022/12/04 02:41:44;;;;;;;55.88;21.88;;;;;;;-0.52;100.00;102062.97;7371735;19;20096;-76
2022/12/04 02:44:22;;;;;;;63.47;21.38;;;;;;;-0.48;100.00;102062.41;7376636;19;20037;-76
2022/12/04 02:46:58;;;;;;;52.67;18.30;;;;;;;-0.47;100.00;102065.88;7374368;19;20007;-76
2022/12/04 02:49:33;;;;;;;54.67;18.83;;;;;;;-0.49;100.00;102062.28;7378661;19;20006;-76
2022/12/04 02:52:09;;;;;;;48.45;18.85;;;;;;;-0.44;100.00;102061.88;7374301;19;20030;-76
2022/12/04 02:54:42;;;;;;;47.67;18.42;;;;;;;-0.51;100.00;102049.28;7374270;19;20022;-76
2022/12/04 02:57:16;;;;;;;51.25;18.55;;;;;;;-0.53;100.00;102047.38;7376731;19;20428;-76
2022/12/04 02:59:50;;;;;;;;;;;;;;;-0.53;100.00;102050.84;7377649;19;20055;-76
2022/12/04 03:02:24;;;;;;;52.92;19.92;;;;;;;-0.50;100.00;102043.34;7374731;19;19914;-76
2022/12/04 03:04:57;;;;;;;56.85;20.08;;;;;;;-0.47;100.00;102053.00;7377229;19;20010;-76
2022/12/04 03:07:34;;;;;;;47.38;21.42;;;;;;;-0.51;100.00;102059.59;7379566;19;20025;-76
2022/12/04 03:10:10;;;;;;;49.88;17.40;;;;;;;-0.45;100.00;102049.75;7378767;19;20030;-75
2022/12/04 03:12:43;;;;;;;64.45;21.33;;;;;;;-0.47;100.00;102048.75;7381015;19;20014;-76
2022/12/04 03:15:20;;;;;;;50.65;19.83;;;;;;;-0.49;100.00;102055.47;7382902;19;20018;-76
2022/12/04 03:17:55;;;;;;;54.30;21.40;;;;;;;-0.51;100.00;102059.59;7381993;19;20454;-76
2022/12/04 03:20:26;;;;;;;60.20;20.70;;;;;;;-0.50;100.00;102050.19;7380160;19;20133;-76
2022/12/04 03:23:03;;;;;;;60.50;18.38;;;;;;;-0.49;100.00;102049.41;7382141;19;20005;-76
2022/12/04 03:25:36;;;;;;;60.83;20.58;;;;;;;-0.45;100.00;102044.59;7379906;19;20026;-75
2022/12/04 03:28:09;;;;;;;;;;;;;;;-0.48;100.00;102049.53;7377423;19;20570;-76
2022/12/04 03:30:45;;;;;;;44.00;17.02;;;;;;;-0.46;100.00;102057.38;7381120;19;19927;-76
2022/12/04 03:33:20;;;;;;;54.20;19.08;;;;;;;-0.48;100.00;102062.41;7379837;19;20015;-76
2022/12/04 03:35:56;;;;;;;50.45;20.85;;;;;;;-0.43;100.00;102062.75;7379732;19;20007;-76
2022/12/04 03:38:39;;;;;;;59.17;19.80;;;;;;;-0.48;100.00;102054.69;7380984;19;20010;-76
2022/12/04 03:41:15;;;;;;;58.40;21.73;;;;;;;-0.52;100.00;102050.06;7380937;19;20035;-76
2022/12/04 03:43:52;;;;;;;54.70;19.70;;;;;;;-0.53;100.00;102045.69;7381374;19;20011;-76
2022/12/04 03:46:31;;;;;;;51.55;20.63;;;;;;;-0.53;100.00;102031.91;7377459;19;20475;-79
2022/12/04 03:49:09;;;;;;;46.78;17.73;;;;;;;-0.42;100.00;102025.91;7379562;19;20007;-78
2022/12/04 03:51:45;;;;;;;59.72;20.60;;;;;;;-0.44;100.00;102025.78;7379473;19;20018;-78
2022/12/04 03:54:18;;;;;;;42.28;17.63;;;;;;;-0.39;100.00;102024.47;7377085;19;20213;-79
2022/12/04 03:56:52;;;;;;;46.35;18.17;;;;;;;-0.46;100.00;102027.34;7381703;19;20037;-78
2022/12/04 03:59:28;;;;;;;46.80;18.90;;;;;;;-0.45;100.00;102013.69;7379447;19;20371;-79
2022/12/04 04:02:02;;;;;;;48.60;18.13;;;;;;;-0.50;100.00;102020.16;7377518;19;20247;-78
2022/12/04 04:04:36;;;;;;;50.10;17.38;;;;;;;-0.49;100.00;102027.13;7379349;19;20061;-78
2022/12/04 04:07:15;;;;;;;58.85;20.42;;;;;;;-0.51;100.00;102018.38;7376329;19;20022;-77
2022/12/04 04:09:48;;;;;;;54.35;20.55;;;;;;;-0.46;100.00;102026.44;7380356;19;20021;-78
2022/12/04 04:12:22;;;;;;;57.53;22.77;;;;;;;-0.45;100.00;102023.09;7376332;19;20007;-79
2022/12/04 04:25:58;;;;;;;59.22;21.10;;;;;;;-0.45;100.00;102018.84;7377970;19;20016;-78
2022/12/04 04:28:31;;;;;;;48.05;17.73;;;;;;;-0.49;100.00;102019.38;7374303;19;20015;-78
2022/12/04 04:31:08;;;;;;;55.65;20.10;;;;;;;-0.51;100.00;102022.63;7378023;19;20022;-78
2022/12/04 04:33:50;;;;;;;52.25;18.42;;;;;;;-0.48;100.00;102018.59;7376493;19;20023;-78
2022/12/04 04:36:32;;;;;;;57.33;21.17;;;;;;;-0.44;100.00;102019.72;7380687;19;20083;-80
2022/12/04 04:39:09;;;;;;;55.38;18.80;;;;;;;-0.47;100.00;102030.72;7377375;19;20156;-78
2022/12/04 04:41:45;;;;;;;56.00;20.92;;;;;;;-0.51;100.00;102028.69;7378698;19;20018;-78
2022/12/04 04:44:21;;;;;;;61.40;21.23;;;;;;;-0.41;100.00;102030.28;7378106;19;20015;-78
2022/12/04 04:46:55;;;;;;;56.58;20.38;;;;;;;-0.51;100.00;102023.53;7378758;19;20006;-78
2022/12/04 04:49:31;;;;;;;61.80;23.20;;;;;;;-0.43;100.00;102024.09;7378256;19;20032;-78
2022/12/04 04:52:01;;;;;;;52.78;22.83;;;;;;;-0.48;100.00;102026.34;7375838;19;20113;-78
2022/12/04 04:54:32;;;;;;;59.97;22.63;;;;;;;-0.41;100.00;102020.88;7375088;19;20011;-78
2022/12/04 04:57:02;;;;;;;52.45;20.75;;;;;;;-0.49;100.00;102027.13;7375912;19;20043;-77
2022/12/04 04:59:33;;;;;;;57.67;22.92;;;;;;;-0.49;100.00;102021.97;7377508;19;20011;-77
2022/12/04 05:02:03;;;;;;;53.28;21.65;;;;;;;-0.44;100.00;102025.78;7375749;19;20014;-78
2022/12/04 05:04:35;;;;;;;42.88;17.25;;;;;;;-0.42;100.00;102033.63;7378661;19;20316;-80
2022/12/04 05:07:05;;;;;;;58.47;20.88;;;;;;;-0.44;100.00;102033.53;7374194;19;20019;-79
2022/12/04 05:09:34;;;;;;;58.35;21.17;;;;;;;-0.47;100.00;102035.88;7374654;19;20606;-80
2022/12/04 05:12:10;;;;;;;57.88;22.02;;;;;;;-0.46;100.00;102032.50;7378489;19;20018;-79
2022/12/04 05:14:40;;;;;;;64.97;21.55;;;;;;;-0.41;100.00;102028.59;7379265;19;20469;-77
2022/12/04 05:17:10;;;;;;;62.55;20.33;;;;;;;-0.40;100.00;102022.66;7375772;19;20393;-80
2022/12/04 05:19:56;;;;;;;50.88;20.90;;;;;;;-0.42;100.00;102028.47;7378167;19;20021;-78
2022/12/04 05:22:30;;;;;;;58.72;21.85;;;;;;;-0.41;100.00;102033.75;7374254;19;20440;-78
2022/12/04 05:25:01;;;;;;;53.63;21.02;;;;;;;-0.36;100.00;102035.00;7376227;19;20025;-78
2022/12/04 05:27:35;;;;;;;62.33;22.00;;;;;;;-0.40;100.00;102042.38;7372020;19;20014;-78
2022/12/04 05:30:06;;;;;;;54.13;19.02;;;;;;;-0.44;100.00;102041.25;7375414;19;20015;-78
2022/12/04 05:32:36;;;;;;;69.15;23.52;;;;;;;-0.44;100.00;102042.94;7377115;19;20017;-78
2022/12/04 05:35:09;;;;;;;56.10;22.35;;;;;;;-0.46;100.00;102032.50;7376720;19;20010;-77
2022/12/04 05:37:41;;;;;;;54.00;20.17;;;;;;;-0.39;100.00;102039.91;7374514;19;20015;-78
2022/12/04 05:40:12;;;;;;;58.05;21.92;;;;;;;-0.40;100.00;102040.69;7375014;19;20011;-78
2022/12/04 05:42:42;;;;;;;63.22;22.90;;;;;;;-0.39;100.00;102039.03;7378250;19;20111;-75
2022/12/04 05:45:12;;;;;;;61.03;21.20;;;;;;;-0.39;100.00;102039.91;7373270;19;20510;-75
2022/12/04 05:47:43;;;;;;;55.97;21.75;;;;;;;-0.35;100.00;102041.94;7377101;19;20022;-75
2022/12/04 05:50:16;;;;;;;56.03;21.38;;;;;;;-0.27;100.00;102039.94;7373586;19;20021;-76
2022/12/04 05:52:45;;;;;;;60.92;22.25;;;;;;;-0.36;100.00;102045.31;7376146;19;20018;-76
2022/12/04 05:55:15;;;;;;;60.08;22.50;;;;;;;-0.28;100.00;102043.31;7374100;19;20010;-76
2022/12/04 05:57:44;;;;;;;58.03;20.00;;;;;;;-0.32;100.00;102048.13;7372635;19;20022;-75
2022/12/04 06:00:16;;;;;;;56.75;21.35;;;;;;;-0.32;100.00;102056.75;7374273;19;20029;-76
2022/12/04 06:02:46;;;;;;;48.55;17.48;;;;;;;-0.27;100.00;102044.22;7374195;19;20017;-75
2022/12/04 06:05:19;;;;;;;58.08;22.95;;;;;;;-0.26;100.00;102040.84;7376105;19;20035;-75
2022/12/04 06:07:48;;;;;;;38.50;16.60;;;;;;;-0.28;100.00;102045.00;7375054;19;20014;-75
2022/12/04 06:10:18;;;;;;;38.28;17.63;;;;;;;-0.23;100.00;102035.94;7373724;19;20022;-75
2022/12/04 06:12:48;;;;;;;55.40;20.33;;;;;;;-0.30;100.00;102034.56;7374390;19;20014;-76
2022/12/04 06:15:18;;;;;;;49.85;21.75;;;;;;;-0.23;100.00;102047.13;7374174;19;20011;-76
2022/12/04 06:17:48;;;;;;;53.60;20.20;;;;;;;-0.25;100.00;102043.53;7375126;19;20045;-75
2022/12/04 06:20:20;;;;;;;57.22;20.88;;;;;;;-0.26;100.00;102040.84;7373027;19;20014;-76
2022/12/04 06:22:50;;;;;;;59.63;20.63;;;;;;;-0.21;100.00;102042.09;7373336;19;20052;-76
2022/12/04 06:25:20;;;;;;;57.58;21.63;;;;;;;-0.22;100.00;102041.19;7374798;19;20014;-76
2022/12/04 06:27:49;;;;;;;54.95;21.95;;;;;;;-0.21;100.00;102039.53;7372720;19;20018;-75
2022/12/04 06:30:19;;;;;;;61.97;22.10;;;;;;;-0.27;100.00;102033.91;7375193;19;20014;-75
2022/12/04 06:32:49;;;;;;;58.83;20.42;;;;;;;-0.28;100.00;102029.53;7375847;19;20018;-76
2022/12/04 06:35:21;;;;;;;55.85;19.25;;;;;;;-0.28;100.00;102033.00;7374649;19;20085;-76
2022/12/04 06:37:51;;;;;;;54.70;19.17;;;;;;;-0.21;100.00;102034.38;7372804;19;20009;-75
2022/12/04 06:40:21;;;;;;;41.30;19.77;;;;;;;-0.17;100.00;102037.28;7375747;19;20016;-75
2022/12/04 06:42:51;;;;;;;54.67;21.00;;;;;;;-0.25;100.00;102045.22;7373952;19;20089;-75
2022/12/04 06:45:21;;;;;;;56.05;20.45;;;;;;;-0.17;100.00;102031.22;7371735;19;20015;-77
2022/12/04 06:47:50;;;;;;;49.75;20.35;;;;;;;-0.23;100.00;102025.63;7371875;19;20018;-77
2022/12/04 06:50:23;;;;;;;52.38;20.00;;;;;;;-0.26;100.00;102034.00;7375062;19;20014;-75
2022/12/04 06:52:52;;;;;;;52.15;20.65;;;;;;;-0.16;100.00;102033.03;7373022;19;20078;-75
2022/12/04 06:55:24;;;;;;;57.83;20.40;;;;;;;-0.25;100.00;102029.75;7373982;19;20480;-75
2022/12/04 06:57:54;;;;;;;41.80;16.65;;;;;;;-0.25;100.00;102032.34;7374650;19;20117;-76
2022/12/04 07:00:24;;;;;;;54.08;20.60;;;;;;;-0.23;100.00;102035.94;7375067;19;20006;-77
2022/12/04 07:02:54;;;;;;;60.60;23.75;;;;;;;-0.27;100.00;102033.91;7373246;19;20047;-77
2022/12/04 07:05:26;;;;;;;56.20;21.02;;;;;;;-0.24;100.00;102034.13;7377413;19;20030;-77
2022/12/04 07:07:56;;;;;;;47.30;19.52;;;;;;;-0.18;100.00;102034.59;7375416;19;20014;-77
2022/12/04 07:10:26;;;;;;;66.30;24.55;;;;;;;-0.24;100.00;102028.97;7375316;19;20019;-77
2022/12/04 07:12:55;;;;;;;59.65;21.77;;;;;;;-0.24;100.00;102034.13;7373990;19;20121;-79
2022/12/04 07:15:25;;;;;;;68.13;21.75;;;;;;;-0.21;100.00;102036.94;7375542;19;20014;-78
2022/12/04 07:17:55;;;;;;;61.25;19.98;;;;;;;-0.18;100.00;102037.16;7376551;19;20101;-79
2022/12/04 07:20:28;;;;;;;63.80;22.35;;;;;;;-0.24;100.00;102039.28;7373311;19;20039;-78
2022/12/04 07:22:58;;;;;;;54.43;20.93;;;;;;;-0.22;100.00;102041.19;7372450;19;20125;-78
2022/12/04 07:25:35;;;;;;;61.47;22.52;;;;;;;-0.24;100.00;102037.59;7373721;19;20022;-78
2022/12/04 07:28:05;;;;;;;64.57;22.38;;;;;;;-0.27;100.00;102041.63;7371258;19;20011;-76
2022/12/04 07:30:35;;;;;;;55.88;22.85;;;;;;;-0.24;100.00;102044.44;7374890;19;20031;-76
2022/12/04 07:33:04;;;;;;;51.95;19.38;;;;;;;-0.23;100.00;102039.41;7373299;19;20528;-79
2022/12/04 07:35:37;;;;;;;53.88;20.10;;;;;;;-0.17;100.00;102037.28;7376945;19;20030;-79
2022/12/04 07:38:06;;;;;;;65.07;21.23;;;;;;;-0.25;100.00;102042.66;7373159;19;20687;-79
2022/12/04 07:40:38;;;;;;;54.70;22.25;;;;;;;-0.18;100.00;102035.50;7375776;19;20078;-76
2022/12/04 07:43:08;;;;;;;59.47;21.88;;;;;;;-0.25;100.00;102037.50;7374494;19;20015;-75
2022/12/04 07:45:38;;;;;;;55.08;21.40;;;;;;;-0.24;100.00;102045.34;7372286;19;20011;-75
2022/12/04 07:48:08;;;;;;;60.75;21.02;;;;;;;-0.17;100.00;102046.69;7374786;19;20097;-76
2022/12/04 07:50:40;;;;;;;50.42;19.60;;;;;;;-0.23;100.00;102051.41;7375531;19;20015;-75
2022/12/04 07:53:10;;;;;;;49.05;21.05;;;;;;;-0.28;100.00;102045.88;7373176;19;20018;-75
2022/12/04 07:55:40;;;;;;;58.45;21.25;;;;;;;-0.27;100.00;102047.69;7380693;19;20086;-75
2022/12/04 07:58:10;;;;;;;62.35;23.38;;;;;;;-0.33;100.00;102044.66;7373230;19;20018;-75
2022/12/04 08:00:39;;;;;;;66.55;22.45;;;;;;;-0.26;100.00;102052.06;7377868;19;20295;-76
2022/12/04 08:03:09;;;;;;;44.80;19.42;;;;;;;-0.23;100.00;102059.13;7375068;19;20090;-76
2022/12/04 08:05:41;;;;;;;47.65;19.25;;;;;;;-0.26;100.00;102061.47;7380244;19;20037;-78
2022/12/04 08:08:14;;;;;;;59.70;22.08;;;;;;;-0.22;100.00;102066.09;7375319;19;20037;-79
2022/12/04 08:10:44;;;;;;;58.67;22.90;;;;;;;-0.24;100.00;102067.66;7380138;19;20011;-79
2022/12/04 08:13:14;;;;;;;49.10;20.00;;;;;;;-0.19;100.00;102068.91;7380079;19;20018;-78
2022/12/04 08:15:44;;;;;;;60.80;21.85;;;;;;;-0.19;100.00;102068.91;7379591;19;20465;-78
2022/12/04 08:18:13;;;;;;;66.18;22.17;;;;;;;-0.22;100.00;102066.97;7378558;19;20018;-79
2022/12/04 08:20:46;;;;;;;56.83;21.55;;;;;;;-0.15;100.00;102070.91;7377843;19;20129;-79
2022/12/04 08:23:16;;;;;;;49.45;19.23;;;;;;;-0.12;100.00;102073.72;7377400;19;20011;-78
2022/12/04 08:25:45;;;;;;;47.20;20.73;;;;;;;-0.18;100.00;102066.44;7376729;19;20021;-78
2022/12/04 08:28:15;;;;;;;60.90;21.30;;;;;;;-0.12;100.00;102068.56;7375395;19;20029;-79
2022/12/04 08:30:45;;;;;;;53.85;21.25;;;;;;;-0.20;100.00;102075.72;7374450;19;20037;-79
2022/12/04 08:33:15;;;;;;;58.88;21.75;;;;;;;-0.26;100.00;102074.38;7369606;19;20018;-78
2022/12/04 08:35:48;;;;;;;62.80;21.00;;;;;;;-0.15;100.00;102070.91;7376633;19;20024;-76
2022/12/04 08:38:17;;;;;;;58.58;21.63;;;;;;;-0.15;100.00;102076.06;7370577;19;20029;-76
2022/12/04 08:40:47;;;;;;;57.05;21.83;;;;;;;-0.12;100.00;102081.47;7371008;19;20017;-76
2022/12/04 08:43:17;;;;;;;57.08;18.25;;;;;;;-0.07;100.00;102080.13;7372411;19;20022;-75
2022/12/04 08:45:47;;;;;;;56.08;22.58;;;;;;;-0.12;100.00;102084.94;7372002;19;20014;-75
2022/12/04 08:48:17;;;;;;;65.80;22.48;;;;;;;-0.13;100.00;102080.56;7374307;19;20022;-76
2022/12/04 08:50:49;;;;;;;56.72;20.45;;;;;;;-0.12;100.00;102086.63;7371478;19;20021;-76
2022/12/04 08:53:19;;;;;;;53.25;20.42;;;;;;;-0.03;100.00;102084.75;7372954;19;20019;-76
2022/12/04 08:55:48;;;;;;;43.35;18.58;;;;;;;-0.06;100.00;102087.09;7376078;19;20148;-76
2022/12/04 08:58:18;;;;;;;51.90;19.40;;;;;;;0.00;100.00;102087.56;7370635;19;20022;-76
2022/12/04 09:00:48;;;;;;;47.70;21.83;;;;;;;-0.06;100.00;102089.66;7376781;19;20038;-76
2022/12/04 09:03:20;;;;;;;47.90;17.83;;;;;;;-0.01;100.00;102102.13;7375534;19;20022;-76
2022/12/04 09:06:01;;;;;;;54.10;20.48;;;;;;;0.01;100.00;102094.47;7377060;19;20007;-78
2022/12/04 09:08:31;;;;;;;56.45;22.85;;;;;;;-0.01;100.00;102104.72;7378151;19;20030;-80
2022/12/04 09:11:05;;;;;;;53.10;20.67;;;;;;;0.02;100.00;102100.53;7371648;19;20701;-79
2022/12/04 09:13:36;;;;;;;50.60;18.58;;;;;;;0.09;100.00;102106.25;7373368;19;20011;-79
2022/12/04 09:16:07;;;;;;;54.45;21.60;;;;;;;0.03;100.00;102099.75;7374502;19;20085;-79
2022/12/04 09:18:38;;;;;;;50.33;19.48;;;;;;;0.04;100.00;102094.69;7375510;19;20011;-79
2022/12/04 09:21:12;;;;;;;52.55;21.35;;;;;;;0.11;100.00;102094.38;7375919;19;20007;-77
2022/12/04 09:23:43;;;;;;;56.53;21.88;;;;;;;0.01;100.00;102094.47;7373784;19;20006;-77
2022/12/04 09:26:21;;;;;;;56.75;23.63;;;;;;;0.08;100.00;102090.66;7372291;19;20021;-76
2022/12/04 09:28:52;;;;;;;44.95;18.35;;;;;;;0.08;100.00;102098.41;7370729;19;20097;-76
2022/12/04 09:31:25;;;;;;;53.08;19.85;;;;;;;0.13;100.00;102105.72;7368610;19;20018;-75
2022/12/04 09:33:54;;;;;;;58.87;20.60;;;;;;;0.09;100.00;102100.22;7376496;19;20402;-75
2022/12/04 09:36:27;;;;;;;47.45;19.88;;;;;;;0.10;100.00;102097.75;7375830;19;20032;-78
2022/12/04 09:38:57;;;;;;;52.00;20.85;;;;;;;0.13;100.00;102094.50;7372578;19;20244;-75
2022/12/04 09:42:01;;;;;;;48.40;18.45;;;;;;;0.08;100.00;102091.56;7375849;19;20007;-75
2022/12/04 09:44:35;;;;;;;30.25;14.02;;;;;;;0.20;100.00;102092.50;7374123;19;20010;-78
2022/12/04 09:47:07;;;;;;;55.45;20.30;;;;;;;0.18;100.00;102083.75;7374042;19;20038;-78
2022/12/04 09:49:43;;;;;;;47.35;19.60;;;;;;;0.28;100.00;102082.75;7375947;19;20612;-78
2022/12/04 09:52:29;;;;;;;55.45;20.83;;;;;;;0.20;100.00;102097.66;7372586;19;20017;-78
2022/12/04 09:55:01;;;;;;;56.50;22.63;;;;;;;0.13;100.00;102094.50;7370595;19;20010;-78
2022/12/04 09:57:38;;;;;;;51.58;19.58;;;;;;;0.17;100.00;102094.84;7373118;19;20016;-78
2022/12/04 10:00:13;;;;;;;42.72;15.90;;;;;;;0.24;100.00;102098.78;7372667;19;20010;-78
2022/12/04 10:02:46;;;;;;;38.33;15.57;;;;;;;0.24;100.00;102097.09;7374589;19;20110;-78
2022/12/04 10:05:21;;;;;;;52.25;17.90;;;;;;;0.22;100.00;102092.59;7371682;19;20052;-78
2022/12/04 10:08:07;;;;;;;38.35;15.73;;;;;;;0.23;100.00;102092.72;7370785;19;20017;-78
2022/12/04 10:10:41;;;;;;;56.80;20.95;;;;;;;0.23;100.00;102084.97;7370794;19;20898;-78
2022/12/04 10:13:32;;;;;;;56.55;21.02;;;;;;;0.24;100.00;102088.47;7372622;19;20535;-78
2022/12/04 10:16:10;;;;;;;52.28;18.70;;;;;;;0.28;100.00;102090.47;7374679;19;20014;-78
2022/12/04 10:18:48;;;;;;;39.13;17.10;;;;;;;0.37;100.00;102085.09;7371546;19;20010;-79
2022/12/04 10:21:32;;;;;;;46.63;19.42;;;;;;;0.37;100.00;102087.69;7370829;19;20021;-80
2022/12/04 10:24:21;;;;;;;46.90;15.70;;;;;;;0.35;100.00;102091.84;7372109;19;20014;-78
2022/12/04 10:26:52;;;;;;;55.10;22.15;;;;;;;0.32;100.00;102095.97;7371318;19;20578;-79
2022/12/04 10:29:25;;;;;;;58.95;20.15;;;;;;;0.37;100.00;102087.69;7375488;19;20090;-79
2022/12/04 10:31:58;;;;;;;53.17;20.05;;;;;;;0.35;100.00;102086.66;7371015;19;20053;-76
2022/12/04 10:34:30;;;;;;;50.60;20.70;;;;;;;0.40;100.00;102077.59;7372653;19;20023;-77
2022/12/04 10:37:04;;;;;;;57.05;20.17;;;;;;;0.42;100.00;102073.44;7373865;19;20013;-76
2022/12/04 10:39:38;;;;;;;;;;;;;;;0.44;100.00;102071.88;7371699;19;20023;-75
2022/12/04 10:42:13;;;;;;;;;;;;;;;0.45;100.00;102078.81;7369769;19;19918;-74
2022/12/04 10:44:43;;;;;;;49.58;21.08;;;;;;;0.37;100.00;102074.78;7374474;19;19927;-75
2022/12/04 10:47:14;;;;;;;49.72;19.73;;;;;;;0.42;100.00;102073.44;7371997;19;20090;-76
2022/12/04 10:49:44;;;;;;;39.00;17.23;;;;;;;0.40;100.00;102070.75;7371998;19;20018;-76
2022/12/04 10:52:14;;;;;;;55.55;19.80;;;;;;;0.37;100.00;102075.69;7367661;19;20018;-79
2022/12/04 10:54:51;;;;;;;48.75;19.60;;;;;;;0.36;100.00;102071.31;7372103;19;20036;-79
2022/12/04 10:57:21;;;;;;;56.20;24.73;;;;;;;0.37;100.00;102067.94;7373862;19;20018;-80
2022/12/04 10:59:53;;;;;;;52.88;23.48;;;;;;;0.43;100.00;102070.06;7370804;19;20019;-78
2022/12/04 11:02:26;;;;;;;57.67;20.90;;;;;;;0.49;100.00;102062.78;7369356;19;20002;-77
2022/12/04 11:04:58;;;;;;;56.60;20.60;;;;;;;0.55;100.00;102060.63;7370143;19;20047;-78
2022/12/04 11:07:29;;;;;;;44.03;18.52;;;;;;;0.59;100.00;102054.91;7369683;19;20022;-78
2022/12/04 11:10:04;;;;;;;48.35;19.48;;;;;;;0.56;100.00;102052.13;7370889;19;20832;-79
2022/12/04 11:12:35;;;;;;;46.95;19.75;;;;;;;0.57;100.00;102057.38;7369002;19;20014;-75
2022/12/04 11:15:15;;;;;;;49.30;19.13;;;;;;;0.50;100.00;102057.72;7371631;19;20125;-75
2022/12/04 11:17:44;;;;;;;60.03;20.25;;;;;;;0.48;100.00;102048.97;7371829;19;20018;-76
2022/12/04 11:20:19;;;;;;;47.03;20.52;;;;;;;0.51;100.00;102045.72;7370251;19;20093;-77
2022/12/04 11:22:53;;;;;;;51.00;19.67;;;;;;;0.50;100.00;102044.81;7371453;19;20021;-75
2022/12/04 11:25:28;;;;;;;57.80;20.58;;;;;;;0.57;100.00;102046.16;7374807;19;20035;-76
2022/12/04 11:28:02;;;;;;;55.53;20.25;;;;;;;0.62;100.00;102045.72;7374548;19;20014;-76
2022/12/04 11:30:36;;;;;;;39.17;16.52;;;;;;;0.63;100.00;102038.84;7373973;19;20031;-79
2022/12/04 11:33:16;;;;;;;40.38;15.68;;;;;;;0.62;100.00;102043.13;7380809;19;20025;-79
2022/12/04 11:35:53;;;;;;;43.70;17.35;;;;;;;0.51;100.00;102037.97;7383888;19;20022;-76
2022/12/04 11:38:28;;;;;;;38.00;13.68;;;;;;;0.55;100.00;102037.41;7377080;19;20007;-77
2022/12/04 11:41:00;;;;;;;50.45;18.05;;;;;;;0.48;100.00;102036.06;7379408;19;20029;-77